sensor_id;sensor_type;location;lat;lon;timestamp;pressure;altitude;pressure_sealevel;temperature;humidity
34893;BME280;21106;52.240;20.902;2023-07-29T00:02:54;99350.67;;;19.54;71.43
34893;BME280;21106;52.240;20.902;2023-07-29T00:08:00;99359.42;;;19.54;71.53
34893;BME280;21106;52.240;20.902;2023-07-29T00:13:07;99362.92;;;19.52;71.72
34893;BME280;21106;52.240;20.902;2023-07-29T00:18:13;99363.98;;;19.50;71.59
34893;BME280;21106;52.240;20.902;2023-07-29T00:23:21;99366.95;;;19.50;71.50
34893;BME280;21106;52.240;20.902;2023-07-29T00:28:27;99375.00;;;19.52;71.53
34893;BME280;21106;52.240;20.902;2023-07-29T00:33:33;99377.73;;;19.49;71.53
34893;BME280;21106;52.240;20.902;2023-07-29T00:38:39;99377.83;;;19.46;71.86
34893;BME280;21106;52.240;20.902;2023-07-29T00:43:46;99382.68;;;19.46;71.89
34893;BME280;21106;52.240;20.902;2023-07-29T00:48:52;99386.98;;;19.43;71.71
34893;BME280;21106;52.240;20.902;2023-07-29T00:53:58;99384.17;;;19.42;71.62
34893;BME280;21106;52.240;20.902;2023-07-29T00:59:04;99385.45;;;19.40;71.78
34893;BME280;21106;52.240;20.902;2023-07-29T01:04:11;99385.21;;;19.38;71.76
34893;BME280;21106;52.240;20.902;2023-07-29T01:09:29;99391.28;;;19.37;71.73
34893;BME280;21106;52.240;20.902;2023-07-29T01:15:10;99394.29;;;19.34;71.75
34893;BME280;21106;52.240;20.902;2023-07-29T01:20:19;99392.10;;;19.36;71.73
34893;BME280;21106;52.240;20.902;2023-07-29T01:25:26;99402.00;;;19.35;71.79
34893;BME280;21106;52.240;20.902;2023-07-29T01:30:43;99406.02;;;19.33;71.83
34893;BME280;21106;52.240;20.902;2023-07-29T01:36:03;99408.01;;;19.28;71.89
34893;BME280;21106;52.240;20.902;2023-07-29T01:41:10;99409.29;;;19.28;72.07
34893;BME280;21106;52.240;20.902;2023-07-29T01:46:16;99411.13;;;19.30;71.91
34893;BME280;21106;52.240;20.902;2023-07-29T01:51:22;99414.83;;;19.28;71.91
34893;BME280;21106;52.240;20.902;2023-07-29T01:56:29;99419.98;;;19.24;71.87
34893;BME280;21106;52.240;20.902;2023-07-29T02:01:36;99422.67;;;19.19;71.96
34893;BME280;21106;52.240;20.902;2023-07-29T02:06:43;99422.33;;;19.16;71.92
34893;BME280;21106;52.240;20.902;2023-07-29T02:11:49;99429.48;;;19.12;72.02
34893;BME280;21106;52.240;20.902;2023-07-29T02:16:55;99431.59;;;19.08;72.10
34893;BME280;21106;52.240;20.902;2023-07-29T02:22:01;99426.58;;;19.05;72.14
34893;BME280;21106;52.240;20.902;2023-07-29T02:27:28;99437.15;;;19.02;72.21
34893;BME280;21106;52.240;20.902;2023-07-29T02:33:35;99434.64;;;18.98;72.07
34893;BME280;21106;52.240;20.902;2023-07-29T02:38:42;99438.21;;;18.93;72.18
34893;BME280;21106;52.240;20.902;2023-07-29T02:43:49;99438.96;;;18.95;72.19
34893;BME280;21106;52.240;20.902;2023-07-29T02:49:15;99434.73;;;18.95;72.15
34893;BME280;21106;52.240;20.902;2023-07-29T02:54:58;99443.53;;;18.95;72.03
34893;BME280;21106;52.240;20.902;2023-07-29T03:00:07;99447.60;;;18.88;72.19
34893;BME280;21106;52.240;20.902;2023-07-29T03:06:05;99448.61;;;18.79;71.99
34893;BME280;21106;52.240;20.902;2023-07-29T03:11:13;99463.05;;;18.76;72.33
34893;BME280;21106;52.240;20.902;2023-07-29T03:16:19;99462.39;;;18.72;72.30
34893;BME280;21106;52.240;20.902;2023-07-29T03:21:32;99462.58;;;18.68;72.43
34893;BME280;21106;52.240;20.902;2023-07-29T03:26:42;99465.88;;;18.62;72.59
34893;BME280;21106;52.240;20.902;2023-07-29T03:31:48;99469.03;;;18.57;72.48
34893;BME280;21106;52.240;20.902;2023-07-29T03:37:04;99473.75;;;18.53;72.50
34893;BME280;21106;52.240;20.902;2023-07-29T03:42:10;99476.06;;;18.50;72.42
34893;BME280;21106;52.240;20.902;2023-07-29T03:47:18;99478.81;;;18.48;72.55
34893;BME280;21106;52.240;20.902;2023-07-29T03:52:27;99485.15;;;18.46;72.52
34893;BME280;21106;52.240;20.902;2023-07-29T03:57:33;99481.46;;;18.44;72.74
34893;BME280;21106;52.240;20.902;2023-07-29T04:02:39;99487.04;;;18.47;72.75
34893;BME280;21106;52.240;20.902;2023-07-29T04:07:46;99487.20;;;18.49;72.68
34893;BME280;21106;52.240;20.902;2023-07-29T04:12:52;99492.84;;;18.56;72.79
34893;BME280;21106;52.240;20.902;2023-07-29T04:17:58;99490.42;;;18.59;72.77
34893;BME280;21106;52.240;20.902;2023-07-29T04:23:24;99496.36;;;18.62;72.91
34893;BME280;21106;52.240;20.902;2023-07-29T04:30:11;99507.89;;;18.67;72.68
34893;BME280;21106;52.240;20.902;2023-07-29T04:35:19;99513.56;;;18.65;72.67
34893;BME280;21106;52.240;20.902;2023-07-29T04:40:25;99527.98;;;18.70;72.44
34893;BME280;21106;52.240;20.902;2023-07-29T04:45:32;99531.36;;;18.75;72.34
34893;BME280;21106;52.240;20.902;2023-07-29T04:50:39;99536.64;;;18.81;72.37
34893;BME280;21106;52.240;20.902;2023-07-29T04:55:46;99542.30;;;18.89;72.35
34893;BME280;21106;52.240;20.902;2023-07-29T05:00:52;99547.27;;;18.93;72.13
34893;BME280;21106;52.240;20.902;2023-07-29T05:05:59;99551.26;;;18.93;71.98
34893;BME280;21106;52.240;20.902;2023-07-29T05:11:05;99552.66;;;18.94;71.83
34893;BME280;21106;52.240;20.902;2023-07-29T05:16:37;99555.42;;;19.00;72.01
34893;BME280;21106;52.240;20.902;2023-07-29T05:22:13;99555.91;;;19.05;71.95
34893;BME280;21106;52.240;20.902;2023-07-29T05:27:21;99556.96;;;19.15;71.77
34893;BME280;21106;52.240;20.902;2023-07-29T05:32:29;99557.84;;;19.23;71.43
34893;BME280;21106;52.240;20.902;2023-07-29T05:38:06;99561.98;;;19.35;71.46
34893;BME280;21106;52.240;20.902;2023-07-29T05:49:33;99556.84;;;19.46;70.86
34893;BME280;21106;52.240;20.902;2023-07-29T05:55:28;99561.98;;;19.54;70.68
34893;BME280;21106;52.240;20.902;2023-07-29T06:00:45;99561.92;;;19.60;70.45
34893;BME280;21106;52.240;20.902;2023-07-29T06:05:53;99575.80;;;19.66;70.48
34893;BME280;21106;52.240;20.902;2023-07-29T06:11:00;99591.42;;;19.79;70.27
34893;BME280;21106;52.240;20.902;2023-07-29T06:16:06;99598.79;;;19.89;70.13
34893;BME280;21106;52.240;20.902;2023-07-29T06:21:43;99594.43;;;19.88;69.92
34893;BME280;21106;52.240;20.902;2023-07-29T06:26:53;99597.39;;;19.87;69.88
34893;BME280;21106;52.240;20.902;2023-07-29T06:33:02;99611.45;;;19.92;69.56
34893;BME280;21106;52.240;20.902;2023-07-29T06:39:16;99615.94;;;19.96;69.34
34893;BME280;21106;52.240;20.902;2023-07-29T06:44:22;99625.59;;;20.03;69.37
34893;BME280;21106;52.240;20.902;2023-07-29T06:49:29;99627.80;;;20.12;69.19
34893;BME280;21106;52.240;20.902;2023-07-29T06:54:36;99628.73;;;20.21;68.94
34893;BME280;21106;52.240;20.902;2023-07-29T06:59:42;99626.99;;;20.31;68.58
34893;BME280;21106;52.240;20.902;2023-07-29T07:04:48;99622.85;;;20.44;68.58
34893;BME280;21106;52.240;20.902;2023-07-29T07:09:54;99625.65;;;20.62;68.37
34893;BME280;21106;52.240;20.902;2023-07-29T07:15:08;99622.94;;;20.86;68.23
34893;BME280;21106;52.240;20.902;2023-07-29T07:20:15;99616.48;;;21.19;68.18
34893;BME280;21106;52.240;20.902;2023-07-29T07:25:22;99617.60;;;21.55;67.58
34893;BME280;21106;52.240;20.902;2023-07-29T07:30:28;99611.16;;;21.84;66.51
34893;BME280;21106;52.240;20.902;2023-07-29T07:35:34;99609.14;;;22.10;66.00
34893;BME280;21106;52.240;20.902;2023-07-29T07:40:55;99608.30;;;22.46;65.10
34893;BME280;21106;52.240;20.902;2023-07-29T07:46:04;99605.83;;;22.79;64.68
34893;BME280;21106;52.240;20.902;2023-07-29T07:51:13;99604.29;;;23.17;63.29
34893;BME280;21106;52.240;20.902;2023-07-29T07:56:20;99612.21;;;23.53;62.43
34893;BME280;21106;52.240;20.902;2023-07-29T08:01:26;99607.27;;;23.91;60.60
34893;BME280;21106;52.240;20.902;2023-07-29T08:06:32;99602.50;;;24.20;59.50
34893;BME280;21106;52.240;20.902;2023-07-29T08:11:39;99607.66;;;24.45;58.54
34893;BME280;21106;52.240;20.902;2023-07-29T08:16:47;99606.73;;;24.71;57.48
34893;BME280;21106;52.240;20.902;2023-07-29T08:21:54;99608.30;;;24.94;56.66
34893;BME280;21106;52.240;20.902;2023-07-29T08:27:01;99599.64;;;25.19;55.61
34893;BME280;21106;52.240;20.902;2023-07-29T08:32:10;99596.33;;;25.42;53.73
34893;BME280;21106;52.240;20.902;2023-07-29T08:37:16;99595.43;;;25.56;53.11
34893;BME280;21106;52.240;20.902;2023-07-29T08:42:23;99589.73;;;25.63;52.50
34893;BME280;21106;52.240;20.902;2023-07-29T08:47:32;99587.93;;;25.70;51.58
34893;BME280;21106;52.240;20.902;2023-07-29T08:52:38;99589.96;;;25.80;50.85
34893;BME280;21106;52.240;20.902;2023-07-29T08:57:45;99591.21;;;25.94;50.17
34893;BME280;21106;52.240;20.902;2023-07-29T09:02:51;99587.41;;;26.03;49.34
34893;BME280;21106;52.240;20.902;2023-07-29T09:08:02;99589.16;;;25.98;49.58
34893;BME280;21106;52.240;20.902;2023-07-29T09:13:10;99585.48;;;25.98;50.51
34893;BME280;21106;52.240;20.902;2023-07-29T09:18:19;99583.14;;;26.06;50.02
34893;BME280;21106;52.240;20.902;2023-07-29T09:23:27;99581.98;;;26.10;49.64
34893;BME280;21106;52.240;20.902;2023-07-29T09:28:37;99581.61;;;26.17;48.56
34893;BME280;21106;52.240;20.902;2023-07-29T09:33:45;99579.90;;;26.20;48.73
34893;BME280;21106;52.240;20.902;2023-07-29T09:38:54;99574.86;;;26.22;48.61
34893;BME280;21106;52.240;20.902;2023-07-29T09:44:03;99583.38;;;26.23;48.72
34893;BME280;21106;52.240;20.902;2023-07-29T09:49:09;99581.14;;;26.23;47.73
34893;BME280;21106;52.240;20.902;2023-07-29T09:54:18;99574.99;;;26.04;46.88
34893;BME280;21106;52.240;20.902;2023-07-29T09:59:25;99568.09;;;25.97;48.02
34893;BME280;21106;52.240;20.902;2023-07-29T10:04:32;99565.17;;;26.01;47.94
34893;BME280;21106;52.240;20.902;2023-07-29T10:09:39;99561.79;;;25.97;46.97
34893;BME280;21106;52.240;20.902;2023-07-29T10:14:47;99556.29;;;25.90;46.67
34893;BME280;21106;52.240;20.902;2023-07-29T10:19:55;99563.15;;;25.87;46.96
34893;BME280;21106;52.240;20.902;2023-07-29T10:25:04;99559.29;;;25.91;47.15
34893;BME280;21106;52.240;20.902;2023-07-29T10:30:11;99551.46;;;25.94;47.24
34893;BME280;21106;52.240;20.902;2023-07-29T10:35:18;99551.64;;;26.02;47.75
34893;BME280;21106;52.240;20.902;2023-07-29T10:40:24;99552.64;;;26.06;47.22
34893;BME280;21106;52.240;20.902;2023-07-29T10:45:38;99558.25;;;26.06;47.22
34893;BME280;21106;52.240;20.902;2023-07-29T10:50:45;99551.37;;;26.04;47.43
34893;BME280;21106;52.240;20.902;2023-07-29T10:56:09;99546.44;;;26.04;47.04
34893;BME280;21106;52.240;20.902;2023-07-29T11:01:28;99540.48;;;25.95;46.59
34893;BME280;21106;52.240;20.902;2023-07-29T11:12:43;99532.25;;;25.94;47.11
34893;BME280;21106;52.240;20.902;2023-07-29T11:17:55;99539.04;;;25.99;46.97
34893;BME280;21106;52.240;20.902;2023-07-29T11:23:03;99525.80;;;25.94;46.50
34893;BME280;21106;52.240;20.902;2023-07-29T11:28:09;99514.67;;;25.89;46.70
34893;BME280;21106;52.240;20.902;2023-07-29T11:33:18;99510.08;;;25.88;46.67
34893;BME280;21106;52.240;20.902;2023-07-29T11:38:25;99500.94;;;25.88;46.93
34893;BME280;21106;52.240;20.902;2023-07-29T11:43:35;99499.56;;;25.87;46.72
34893;BME280;21106;52.240;20.902;2023-07-29T11:49:03;99489.35;;;25.81;46.68
34893;BME280;21106;52.240;20.902;2023-07-29T11:55:35;99480.06;;;25.78;46.78
34893;BME280;21106;52.240;20.902;2023-07-29T12:07:20;99476.02;;;25.75;46.39
34893;BME280;21106;52.240;20.902;2023-07-29T12:12:47;99470.59;;;25.72;46.65
34893;BME280;21106;52.240;20.902;2023-07-29T12:19:13;99461.86;;;25.75;46.79
34893;BME280;21106;52.240;20.902;2023-07-29T12:29:44;99448.30;;;25.92;46.77
34893;BME280;21106;52.240;20.902;2023-07-29T12:35:12;99447.02;;;25.99;46.51
34893;BME280;21106;52.240;20.902;2023-07-29T12:47:40;99428.53;;;26.21;46.33
34893;BME280;21106;52.240;20.902;2023-07-29T12:52:46;99436.64;;;26.27;45.97
34893;BME280;21106;52.240;20.902;2023-07-29T12:57:53;99428.65;;;26.36;46.06
34893;BME280;21106;52.240;20.902;2023-07-29T13:03:03;99431.92;;;26.48;45.68
34893;BME280;21106;52.240;20.902;2023-07-29T13:08:22;99423.73;;;26.48;45.08
34893;BME280;21106;52.240;20.902;2023-07-29T13:14:20;99409.50;;;26.53;45.33
34893;BME280;21106;52.240;20.902;2023-07-29T13:19:55;99417.04;;;26.63;45.43
34893;BME280;21106;52.240;20.902;2023-07-29T13:25:01;99409.33;;;26.69;45.03
34893;BME280;21106;52.240;20.902;2023-07-29T13:30:08;99408.54;;;26.74;44.97
34893;BME280;21106;52.240;20.902;2023-07-29T13:35:24;99398.36;;;26.81;44.82
34893;BME280;21106;52.240;20.902;2023-07-29T13:40:35;99387.17;;;26.82;44.79
34893;BME280;21106;52.240;20.902;2023-07-29T13:45:41;99386.45;;;26.89;44.75
34893;BME280;21106;52.240;20.902;2023-07-29T13:50:47;99379.55;;;26.98;44.72
34893;BME280;21106;52.240;20.902;2023-07-29T13:55:54;99374.55;;;27.05;44.64
34893;BME280;21106;52.240;20.902;2023-07-29T14:01:02;99371.85;;;27.08;44.58
34893;BME280;21106;52.240;20.902;2023-07-29T14:06:09;99369.86;;;27.16;44.80
34893;BME280;21106;52.240;20.902;2023-07-29T14:11:15;99361.73;;;27.22;44.50
34893;BME280;21106;52.240;20.902;2023-07-29T14:16:21;99358.89;;;27.24;44.23
34893;BME280;21106;52.240;20.902;2023-07-29T14:21:27;99349.56;;;27.28;44.33
34893;BME280;21106;52.240;20.902;2023-07-29T14:26:34;99347.55;;;27.31;44.04
34893;BME280;21106;52.240;20.902;2023-07-29T14:31:40;99339.84;;;27.33;44.12
34893;BME280;21106;52.240;20.902;2023-07-29T14:36:46;99335.47;;;27.40;44.14
34893;BME280;21106;52.240;20.902;2023-07-29T14:41:52;99322.73;;;27.43;43.75
34893;BME280;21106;52.240;20.902;2023-07-29T14:46:59;99327.30;;;27.42;43.83
34893;BME280;21106;52.240;20.902;2023-07-29T14:52:06;99327.80;;;27.48;43.97
34893;BME280;21106;52.240;20.902;2023-07-29T14:57:12;99326.64;;;27.52;43.83
34893;BME280;21106;52.240;20.902;2023-07-29T15:02:18;99322.36;;;27.57;43.67
34893;BME280;21106;52.240;20.902;2023-07-29T15:07:24;99323.40;;;27.61;43.42
34893;BME280;21106;52.240;20.902;2023-07-29T15:12:32;99314.96;;;27.59;43.36
34893;BME280;21106;52.240;20.902;2023-07-29T15:17:38;99309.64;;;27.61;43.42
34893;BME280;21106;52.240;20.902;2023-07-29T15:22:45;99304.72;;;27.58;43.20
34893;BME280;21106;52.240;20.902;2023-07-29T15:27:51;99294.39;;;27.46;43.18
34893;BME280;21106;52.240;20.902;2023-07-29T15:32:57;99294.02;;;27.37;43.09
34893;BME280;21106;52.240;20.902;2023-07-29T15:38:03;99296.15;;;27.28;43.42
34893;BME280;21106;52.240;20.902;2023-07-29T15:43:12;99296.33;;;27.27;43.64
34893;BME280;21106;52.240;20.902;2023-07-29T15:48:19;99290.95;;;27.24;43.64
34893;BME280;21106;52.240;20.902;2023-07-29T15:53:25;99287.84;;;27.17;43.67
34893;BME280;21106;52.240;20.902;2023-07-29T15:58:31;99285.71;;;27.08;43.91
34893;BME280;21106;52.240;20.902;2023-07-29T16:03:37;99294.17;;;26.99;43.98
34893;BME280;21106;52.240;20.902;2023-07-29T16:08:46;99280.49;;;26.98;44.54
34893;BME280;21106;52.240;20.902;2023-07-29T16:13:52;99284.75;;;27.06;44.47
34893;BME280;21106;52.240;20.902;2023-07-29T16:18:59;99276.67;;;27.05;44.54
34893;BME280;21106;52.240;20.902;2023-07-29T16:24:05;99271.47;;;26.99;44.57
34893;BME280;21106;52.240;20.902;2023-07-29T16:29:11;99264.34;;;26.98;44.75
34893;BME280;21106;52.240;20.902;2023-07-29T16:34:17;99256.17;;;26.99;44.97
34893;BME280;21106;52.240;20.902;2023-07-29T16:39:24;99251.29;;;26.97;45.09
34893;BME280;21106;52.240;20.902;2023-07-29T16:44:30;99244.55;;;26.92;45.13
34893;BME280;21106;52.240;20.902;2023-07-29T16:49:36;99240.32;;;26.82;45.47
34893;BME280;21106;52.240;20.902;2023-07-29T16:54:45;99251.02;;;26.73;45.87
34893;BME280;21106;52.240;20.902;2023-07-29T16:59:51;99245.16;;;26.66;46.37
34893;BME280;21106;52.240;20.902;2023-07-29T17:04:57;99241.15;;;26.55;46.73
34893;BME280;21106;52.240;20.902;2023-07-29T17:10:06;99242.92;;;26.47;46.87
34893;BME280;21106;52.240;20.902;2023-07-29T17:15:13;99241.14;;;26.37;47.13
34893;BME280;21106;52.240;20.902;2023-07-29T17:20:19;99241.16;;;26.29;47.27
34893;BME280;21106;52.240;20.902;2023-07-29T17:25:26;99239.69;;;26.26;47.33
34893;BME280;21106;52.240;20.902;2023-07-29T17:30:34;99235.30;;;26.24;47.58
34893;BME280;21106;52.240;20.902;2023-07-29T17:35:45;99233.06;;;26.23;47.54
34893;BME280;21106;52.240;20.902;2023-07-29T17:40:51;99231.67;;;26.20;47.73
34893;BME280;21106;52.240;20.902;2023-07-29T17:45:58;99225.38;;;26.14;47.79
34893;BME280;21106;52.240;20.902;2023-07-29T17:51:05;99219.60;;;26.10;48.04
34893;BME280;21106;52.240;20.902;2023-07-29T17:56:11;99211.75;;;26.09;48.30
34893;BME280;21106;52.240;20.902;2023-07-29T18:01:17;99207.16;;;26.11;48.58
34893;BME280;21106;52.240;20.902;2023-07-29T18:06:23;99210.33;;;26.07;48.47
34893;BME280;21106;52.240;20.902;2023-07-29T18:11:30;99219.61;;;25.99;48.73
34893;BME280;21106;52.240;20.902;2023-07-29T18:16:36;99206.89;;;25.88;49.02
34893;BME280;21106;52.240;20.902;2023-07-29T18:21:46;99208.94;;;25.80;49.36
34893;BME280;21106;52.240;20.902;2023-07-29T18:26:52;99209.92;;;25.73;49.52
34893;BME280;21106;52.240;20.902;2023-07-29T18:31:58;99208.77;;;25.68;49.68
34893;BME280;21106;52.240;20.902;2023-07-29T18:37:05;99206.04;;;25.63;49.83
34893;BME280;21106;52.240;20.902;2023-07-29T18:42:11;99212.09;;;25.57;50.05
34893;BME280;21106;52.240;20.902;2023-07-29T18:47:17;99215.70;;;25.50;50.16
34893;BME280;21106;52.240;20.902;2023-07-29T18:52:24;99217.71;;;25.43;50.28
34893;BME280;21106;52.240;20.902;2023-07-29T18:57:30;99223.60;;;25.36;50.48
34893;BME280;21106;52.240;20.902;2023-07-29T19:02:36;99224.36;;;25.29;50.85
34893;BME280;21106;52.240;20.902;2023-07-29T19:07:44;99221.98;;;25.24;51.04
34893;BME280;21106;52.240;20.902;2023-07-29T19:12:51;99208.85;;;25.21;51.24
34893;BME280;21106;52.240;20.902;2023-07-29T19:18:01;99205.84;;;25.19;51.47
34893;BME280;21106;52.240;20.902;2023-07-29T19:23:08;99198.66;;;25.20;51.46
34893;BME280;21106;52.240;20.902;2023-07-29T19:28:14;99201.26;;;25.15;51.60
34893;BME280;21106;52.240;20.902;2023-07-29T19:33:20;99190.40;;;25.07;51.81
34893;BME280;21106;52.240;20.902;2023-07-29T19:38:26;99179.84;;;25.00;51.99
34893;BME280;21106;52.240;20.902;2023-07-29T19:43:33;99172.80;;;24.93;52.27
34893;BME280;21106;52.240;20.902;2023-07-29T19:48:39;99165.39;;;24.86;52.53
34893;BME280;21106;52.240;20.902;2023-07-29T19:53:45;99170.48;;;24.77;52.95
34893;BME280;21106;52.240;20.902;2023-07-29T19:58:51;99169.75;;;24.68;53.26
34893;BME280;21106;52.240;20.902;2023-07-29T20:03:58;99171.87;;;24.60;53.70
34893;BME280;21106;52.240;20.902;2023-07-29T20:09:04;99174.13;;;24.51;54.08
34893;BME280;21106;52.240;20.902;2023-07-29T20:14:10;99174.94;;;24.43;54.45
34893;BME280;21106;52.240;20.902;2023-07-29T20:19:16;99178.40;;;24.36;54.83
34893;BME280;21106;52.240;20.902;2023-07-29T20:24:22;99174.09;;;24.30;55.24
34893;BME280;21106;52.240;20.902;2023-07-29T20:29:29;99177.29;;;24.22;55.38
34893;BME280;21106;52.240;20.902;2023-07-29T20:34:35;99157.74;;;24.15;55.72
34893;BME280;21106;52.240;20.902;2023-07-29T20:39:41;99148.65;;;24.11;55.91
34893;BME280;21106;52.240;20.902;2023-07-29T20:44:47;99156.21;;;24.06;56.21
34893;BME280;21106;52.240;20.902;2023-07-29T20:49:54;99147.70;;;23.99;56.70
34893;BME280;21106;52.240;20.902;2023-07-29T20:55:00;99162.25;;;23.91;56.91
34893;BME280;21106;52.240;20.902;2023-07-29T21:00:07;99198.02;;;23.85;56.97
34893;BME280;21106;52.240;20.902;2023-07-29T21:05:15;99232.02;;;23.89;56.76
34893;BME280;21106;52.240;20.902;2023-07-29T21:10:22;99283.23;;;23.94;56.51
34893;BME280;21106;52.240;20.902;2023-07-29T21:15:28;99295.46;;;23.81;56.77
34893;BME280;21106;52.240;20.902;2023-07-29T21:20:35;99308.02;;;23.70;57.14
34893;BME280;21106;52.240;20.902;2023-07-29T21:25:48;99329.44;;;23.63;57.33
34893;BME280;21106;52.240;20.902;2023-07-29T21:30:57;99357.42;;;23.49;57.58
34893;BME280;21106;52.240;20.902;2023-07-29T21:36:03;99367.52;;;23.37;58.14
34893;BME280;21106;52.240;20.902;2023-07-29T21:41:10;99371.33;;;23.26;58.73
34893;BME280;21106;52.240;20.902;2023-07-29T21:46:16;99369.35;;;23.14;59.38
34893;BME280;21106;52.240;20.902;2023-07-29T21:51:24;99367.83;;;23.07;59.77
34893;BME280;21106;52.240;20.902;2023-07-29T21:56:31;99360.79;;;22.95;59.98
34893;BME280;21106;52.240;20.902;2023-07-29T22:01:38;99351.81;;;22.83;60.32
34893;BME280;21106;52.240;20.902;2023-07-29T22:06:44;99346.23;;;22.71;60.95
34893;BME280;21106;52.240;20.902;2023-07-29T22:11:51;99340.85;;;22.58;61.26
34893;BME280;21106;52.240;20.902;2023-07-29T22:16:57;99316.08;;;22.51;61.49
34893;BME280;21106;52.240;20.902;2023-07-29T22:22:03;99291.81;;;22.32;61.67
34893;BME280;21106;52.240;20.902;2023-07-29T22:27:09;99280.12;;;21.96;62.53
34893;BME280;21106;52.240;20.902;2023-07-29T22:32:15;99269.15;;;21.61;63.14
34893;BME280;21106;52.240;20.902;2023-07-29T22:37:22;99267.73;;;21.40;63.58
34893;BME280;21106;52.240;20.902;2023-07-29T22:42:28;99239.39;;;21.26;63.85
34893;BME280;21106;52.240;20.902;2023-07-29T22:47:35;99214.30;;;21.06;64.81
34893;BME280;21106;52.240;20.902;2023-07-29T22:52:42;99208.46;;;20.85;65.21
34893;BME280;21106;52.240;20.902;2023-07-29T22:57:48;99205.14;;;20.76;65.11
34893;BME280;21106;52.240;20.902;2023-07-29T23:02:54;99186.62;;;20.77;65.39
34893;BME280;21106;52.240;20.902;2023-07-29T23:08:00;99160.08;;;20.72;65.59
34893;BME280;21106;52.240;20.902;2023-07-29T23:13:07;99143.37;;;20.57;66.62
34893;BME280;21106;52.240;20.902;2023-07-29T23:18:13;99124.44;;;20.36;67.45
34893;BME280;21106;52.240;20.902;2023-07-29T23:23:20;99154.17;;;20.21;67.38
34893;BME280;21106;52.240;20.902;2023-07-29T23:28:26;99158.79;;;20.22;67.77
34893;BME280;21106;52.240;20.902;2023-07-29T23:33:32;99183.59;;;20.27;68.07
34893;BME280;21106;52.240;20.902;2023-07-29T23:38:39;99201.75;;;20.35;68.42
34893;BME280;21106;52.240;20.902;2023-07-29T23:43:45;99205.41;;;20.42;68.44
34893;BME280;21106;52.240;20.902;2023-07-29T23:48:51;99194.64;;;20.45;68.87
34893;BME280;21106;52.240;20.902;2023-07-29T23:53:57;99187.42;;;20.47;68.89
34893;BME280;21106;52.240;20.902;2023-07-29T23:59:04;99197.57;;;20.48;69.05
